sensor_id;sensor_type;location;lat;lon;timestamp;P1;durP1;ratioP1;P2;durP2;ratioP2
43793;SDS011;29414;44.798;20.366;2023-05-16T00:01:54;6.72;;;5.43;;
43793;SDS011;29414;44.798;20.366;2023-05-16T00:05:55;8.18;;;6.20;;
43793;SDS011;29414;44.798;20.366;2023-05-16T00:09:55;8.18;;;6.13;;
43793;SDS011;29414;44.798;20.366;2023-05-16T00:13:55;9.90;;;6.57;;
43793;SDS011;29414;44.798;20.366;2023-05-16T00:17:56;7.32;;;5.93;;
43793;SDS011;29414;44.798;20.366;2023-05-16T00:21:58;11.85;;;5.97;;
43793;SDS011;29414;44.798;20.366;2023-05-16T00:25:58;8.90;;;6.80;;
43793;SDS011;29414;44.798;20.366;2023-05-16T00:29:58;9.82;;;5.72;;
43793;SDS011;29414;44.798;20.366;2023-05-16T00:33:59;12.32;;;7.20;;
43793;SDS011;29414;44.798;20.366;2023-05-16T00:37:59;6.72;;;6.00;;
43793;SDS011;29414;44.798;20.366;2023-05-16T00:42:00;12.07;;;6.47;;
43793;SDS011;29414;44.798;20.366;2023-05-16T00:46:00;9.25;;;6.20;;
43793;SDS011;29414;44.798;20.366;2023-05-16T00:50:01;8.00;;;6.63;;
43793;SDS011;29414;44.798;20.366;2023-05-16T00:54:02;8.63;;;6.07;;
43793;SDS011;29414;44.798;20.366;2023-05-16T00:58:05;9.65;;;6.40;;
43793;SDS011;29414;44.798;20.366;2023-05-16T01:02:06;8.65;;;6.45;;
43793;SDS011;29414;44.798;20.366;2023-05-16T01:06:06;7.93;;;5.88;;
43793;SDS011;29414;44.798;20.366;2023-05-16T01:10:06;10.07;;;6.57;;
43793;SDS011;29414;44.798;20.366;2023-05-16T01:18:11;8.05;;;6.53;;
43793;SDS011;29414;44.798;20.366;2023-05-16T01:26:32;9.73;;;6.10;;
43793;SDS011;29414;44.798;20.366;2023-05-16T01:30:37;12.18;;;6.80;;
43793;SDS011;29414;44.798;20.366;2023-05-16T01:34:37;13.25;;;6.97;;
43793;SDS011;29414;44.798;20.366;2023-05-16T01:42:42;8.80;;;6.47;;
43793;SDS011;29414;44.798;20.366;2023-05-16T01:46:44;13.82;;;8.57;;
43793;SDS011;29414;44.798;20.366;2023-05-16T01:50:48;11.48;;;9.27;;
43793;SDS011;29414;44.798;20.366;2023-05-16T01:54:51;11.63;;;8.57;;
43793;SDS011;29414;44.798;20.366;2023-05-16T01:58:52;13.18;;;9.65;;
43793;SDS011;29414;44.798;20.366;2023-05-16T02:02:53;12.50;;;10.38;;
43793;SDS011;29414;44.798;20.366;2023-05-16T02:06:53;13.66;;;9.54;;
43793;SDS011;29414;44.798;20.366;2023-05-16T02:10:54;12.60;;;9.38;;
43793;SDS011;29414;44.798;20.366;2023-05-16T02:14:54;13.38;;;10.20;;
43793;SDS011;29414;44.798;20.366;2023-05-16T02:18:55;13.57;;;10.27;;
43793;SDS011;29414;44.798;20.366;2023-05-16T02:22:55;12.73;;;10.35;;
43793;SDS011;29414;44.798;20.366;2023-05-16T02:26:55;10.55;;;8.20;;
43793;SDS011;29414;44.798;20.366;2023-05-16T02:30:59;9.82;;;7.72;;
43793;SDS011;29414;44.798;20.366;2023-05-16T02:34:59;8.45;;;6.50;;
43793;SDS011;29414;44.798;20.366;2023-05-16T02:39:00;10.30;;;6.70;;
43793;SDS011;29414;44.798;20.366;2023-05-16T02:43:00;8.55;;;5.72;;
43793;SDS011;29414;44.798;20.366;2023-05-16T02:47:01;8.60;;;6.78;;
43793;SDS011;29414;44.798;20.366;2023-05-16T02:51:01;7.43;;;6.20;;
43793;SDS011;29414;44.798;20.366;2023-05-16T02:55:01;7.88;;;7.07;;
43793;SDS011;29414;44.798;20.366;2023-05-16T02:59:02;14.07;;;7.13;;
43793;SDS011;29414;44.798;20.366;2023-05-16T03:03:04;12.27;;;7.28;;
43793;SDS011;29414;44.798;20.366;2023-05-16T03:07:04;12.90;;;8.20;;
43793;SDS011;29414;44.798;20.366;2023-05-16T03:11:05;8.82;;;6.35;;
43793;SDS011;29414;44.798;20.366;2023-05-16T03:15:05;10.45;;;6.88;;
43793;SDS011;29414;44.798;20.366;2023-05-16T03:19:07;11.35;;;7.47;;
43793;SDS011;29414;44.798;20.366;2023-05-16T03:23:07;9.63;;;6.75;;
43793;SDS011;29414;44.798;20.366;2023-05-16T03:27:08;8.32;;;6.28;;
43793;SDS011;29414;44.798;20.366;2023-05-16T03:31:08;11.00;;;6.82;;
43793;SDS011;29414;44.798;20.366;2023-05-16T03:35:08;10.90;;;6.82;;
43793;SDS011;29414;44.798;20.366;2023-05-16T03:39:10;8.65;;;7.47;;
43793;SDS011;29414;44.798;20.366;2023-05-16T03:43:11;11.75;;;6.57;;
43793;SDS011;29414;44.798;20.366;2023-05-16T03:47:11;6.68;;;5.85;;
43793;SDS011;29414;44.798;20.366;2023-05-16T03:51:11;7.95;;;5.85;;
43793;SDS011;29414;44.798;20.366;2023-05-16T03:55:12;10.95;;;6.68;;
43793;SDS011;29414;44.798;20.366;2023-05-16T03:59:14;11.57;;;6.55;;
43793;SDS011;29414;44.798;20.366;2023-05-16T04:03:14;13.07;;;5.97;;
43793;SDS011;29414;44.798;20.366;2023-05-16T04:07:15;7.43;;;6.00;;
43793;SDS011;29414;44.798;20.366;2023-05-16T04:11:15;9.77;;;5.90;;
43793;SDS011;29414;44.798;20.366;2023-05-16T04:15:15;7.84;;;5.72;;
43793;SDS011;29414;44.798;20.366;2023-05-16T04:19:16;11.75;;;6.07;;
43793;SDS011;29414;44.798;20.366;2023-05-16T04:23:16;8.30;;;5.75;;
43793;SDS011;29414;44.798;20.366;2023-05-16T04:27:16;6.13;;;5.05;;
43793;SDS011;29414;44.798;20.366;2023-05-16T04:31:16;5.80;;;4.93;;
43793;SDS011;29414;44.798;20.366;2023-05-16T04:35:17;7.05;;;5.13;;
43793;SDS011;29414;44.798;20.366;2023-05-16T04:39:20;8.68;;;4.90;;
43793;SDS011;29414;44.798;20.366;2023-05-16T04:43:20;7.32;;;5.03;;
43793;SDS011;29414;44.798;20.366;2023-05-16T04:47:21;9.02;;;5.47;;
43793;SDS011;29414;44.798;20.366;2023-05-16T04:51:21;9.93;;;4.72;;
43793;SDS011;29414;44.798;20.366;2023-05-16T04:55:21;9.88;;;5.32;;
43793;SDS011;29414;44.798;20.366;2023-05-16T04:59:21;6.16;;;4.54;;
43793;SDS011;29414;44.798;20.366;2023-05-16T05:03:22;7.53;;;5.07;;
43793;SDS011;29414;44.798;20.366;2023-05-16T05:07:22;8.90;;;4.35;;
43793;SDS011;29414;44.798;20.366;2023-05-16T05:11:23;7.50;;;5.50;;
43793;SDS011;29414;44.798;20.366;2023-05-16T05:15:23;7.75;;;4.97;;
43793;SDS011;29414;44.798;20.366;2023-05-16T05:19:23;9.32;;;4.75;;
43793;SDS011;29414;44.798;20.366;2023-05-16T05:23:24;9.85;;;4.88;;
43793;SDS011;29414;44.798;20.366;2023-05-16T05:27:24;11.73;;;4.80;;
43793;SDS011;29414;44.798;20.366;2023-05-16T05:31:26;10.95;;;4.70;;
43793;SDS011;29414;44.798;20.366;2023-05-16T05:35:26;6.45;;;4.88;;
43793;SDS011;29414;44.798;20.366;2023-05-16T05:39:26;10.68;;;4.36;;
43793;SDS011;29414;44.798;20.366;2023-05-16T05:43:27;4.88;;;3.72;;
43793;SDS011;29414;44.798;20.366;2023-05-16T05:47:27;12.55;;;4.80;;
43793;SDS011;29414;44.798;20.366;2023-05-16T05:51:27;9.48;;;4.32;;
43793;SDS011;29414;44.798;20.366;2023-05-16T05:55:28;6.85;;;4.70;;
43793;SDS011;29414;44.798;20.366;2023-05-16T05:59:28;7.63;;;4.43;;
43793;SDS011;29414;44.798;20.366;2023-05-16T06:03:28;6.38;;;4.15;;
43793;SDS011;29414;44.798;20.366;2023-05-16T06:07:28;12.77;;;4.43;;
43793;SDS011;29414;44.798;20.366;2023-05-16T06:11:29;7.13;;;3.83;;
43793;SDS011;29414;44.798;20.366;2023-05-16T06:15:29;7.45;;;4.05;;
43793;SDS011;29414;44.798;20.366;2023-05-16T06:19:29;5.97;;;3.60;;
43793;SDS011;29414;44.798;20.366;2023-05-16T06:23:30;6.90;;;3.96;;
43793;SDS011;29414;44.798;20.366;2023-05-16T06:27:30;8.13;;;3.72;;
43793;SDS011;29414;44.798;20.366;2023-05-16T06:31:31;7.07;;;4.22;;
43793;SDS011;29414;44.798;20.366;2023-05-16T06:35:31;7.45;;;4.10;;
43793;SDS011;29414;44.798;20.366;2023-05-16T06:39:31;5.47;;;3.75;;
43793;SDS011;29414;44.798;20.366;2023-05-16T06:43:31;6.15;;;3.63;;
43793;SDS011;29414;44.798;20.366;2023-05-16T06:47:32;7.03;;;4.03;;
43793;SDS011;29414;44.798;20.366;2023-05-16T06:51:32;8.40;;;3.47;;
43793;SDS011;29414;44.798;20.366;2023-05-16T06:55:33;4.90;;;3.67;;
43793;SDS011;29414;44.798;20.366;2023-05-16T06:59:33;5.40;;;3.33;;
43793;SDS011;29414;44.798;20.366;2023-05-16T07:03:34;6.18;;;4.05;;
43793;SDS011;29414;44.798;20.366;2023-05-16T07:07:35;9.63;;;4.43;;
43793;SDS011;29414;44.798;20.366;2023-05-16T07:11:35;6.55;;;3.80;;
43793;SDS011;29414;44.798;20.366;2023-05-16T07:15:36;7.43;;;3.50;;
43793;SDS011;29414;44.798;20.366;2023-05-16T07:19:36;11.07;;;4.28;;
43793;SDS011;29414;44.798;20.366;2023-05-16T07:23:36;6.35;;;3.95;;
43793;SDS011;29414;44.798;20.366;2023-05-16T07:27:40;6.47;;;3.67;;
43793;SDS011;29414;44.798;20.366;2023-05-16T07:31:40;8.02;;;3.90;;
43793;SDS011;29414;44.798;20.366;2023-05-16T07:35:41;9.35;;;4.00;;
43793;SDS011;29414;44.798;20.366;2023-05-16T07:39:41;7.13;;;3.53;;
43793;SDS011;29414;44.798;20.366;2023-05-16T07:43:42;6.70;;;3.80;;
43793;SDS011;29414;44.798;20.366;2023-05-16T07:47:45;5.72;;;4.28;;
43793;SDS011;29414;44.798;20.366;2023-05-16T07:51:45;7.55;;;3.83;;
43793;SDS011;29414;44.798;20.366;2023-05-16T07:55:46;6.05;;;3.72;;
43793;SDS011;29414;44.798;20.366;2023-05-16T07:59:46;10.27;;;4.78;;
43793;SDS011;29414;44.798;20.366;2023-05-16T08:03:47;8.10;;;3.83;;
43793;SDS011;29414;44.798;20.366;2023-05-16T08:07:47;7.00;;;4.22;;
43793;SDS011;29414;44.798;20.366;2023-05-16T08:11:47;6.90;;;3.55;;
43793;SDS011;29414;44.798;20.366;2023-05-16T08:15:48;9.45;;;4.40;;
43793;SDS011;29414;44.798;20.366;2023-05-16T08:19:48;6.25;;;3.58;;
43793;SDS011;29414;44.798;20.366;2023-05-16T08:23:48;9.25;;;4.93;;
43793;SDS011;29414;44.798;20.366;2023-05-16T08:27:49;8.85;;;4.40;;
43793;SDS011;29414;44.798;20.366;2023-05-16T08:31:50;8.75;;;3.70;;
43793;SDS011;29414;44.798;20.366;2023-05-16T08:35:50;8.45;;;3.60;;
43793;SDS011;29414;44.798;20.366;2023-05-16T08:39:52;6.32;;;4.25;;
43793;SDS011;29414;44.798;20.366;2023-05-16T08:43:55;7.55;;;4.05;;
43793;SDS011;29414;44.798;20.366;2023-05-16T08:47:55;4.65;;;4.13;;
43793;SDS011;29414;44.798;20.366;2023-05-16T08:51:56;7.55;;;3.92;;
43793;SDS011;29414;44.798;20.366;2023-05-16T08:55:57;6.45;;;4.32;;
43793;SDS011;29414;44.798;20.366;2023-05-16T08:59:58;9.68;;;4.63;;
43793;SDS011;29414;44.798;20.366;2023-05-16T09:03:59;7.18;;;4.57;;
43793;SDS011;29414;44.798;20.366;2023-05-16T09:08:00;6.03;;;4.53;;
43793;SDS011;29414;44.798;20.366;2023-05-16T09:12:00;8.32;;;4.75;;
43793;SDS011;29414;44.798;20.366;2023-05-16T09:20:30;7.13;;;4.20;;
43793;SDS011;29414;44.798;20.366;2023-05-16T09:24:31;8.35;;;4.43;;
43793;SDS011;29414;44.798;20.366;2023-05-16T09:28:32;9.70;;;4.30;;
43793;SDS011;29414;44.798;20.366;2023-05-16T09:32:32;9.13;;;4.65;;
43793;SDS011;29414;44.798;20.366;2023-05-16T09:36:32;9.40;;;4.80;;
43793;SDS011;29414;44.798;20.366;2023-05-16T09:40:33;9.68;;;5.25;;
43793;SDS011;29414;44.798;20.366;2023-05-16T09:44:33;7.28;;;4.65;;
43793;SDS011;29414;44.798;20.366;2023-05-16T09:48:33;6.75;;;4.38;;
43793;SDS011;29414;44.798;20.366;2023-05-16T09:52:34;10.85;;;5.43;;
43793;SDS011;29414;44.798;20.366;2023-05-16T09:56:38;9.07;;;5.25;;
43793;SDS011;29414;44.798;20.366;2023-05-16T10:00:47;10.30;;;4.43;;
43793;SDS011;29414;44.798;20.366;2023-05-16T10:04:47;8.77;;;4.43;;
43793;SDS011;29414;44.798;20.366;2023-05-16T10:08:47;9.30;;;4.97;;
43793;SDS011;29414;44.798;20.366;2023-05-16T10:12:49;6.20;;;4.40;;
43793;SDS011;29414;44.798;20.366;2023-05-16T10:16:49;9.43;;;4.90;;
43793;SDS011;29414;44.798;20.366;2023-05-16T10:20:51;6.68;;;4.85;;
43793;SDS011;29414;44.798;20.366;2023-05-16T10:29:02;10.77;;;5.13;;
43793;SDS011;29414;44.798;20.366;2023-05-16T10:33:03;8.80;;;5.18;;
43793;SDS011;29414;44.798;20.366;2023-05-16T10:37:03;6.03;;;4.78;;
43793;SDS011;29414;44.798;20.366;2023-05-16T10:41:04;7.70;;;5.15;;
43793;SDS011;29414;44.798;20.366;2023-05-16T10:45:24;9.55;;;5.55;;
43793;SDS011;29414;44.798;20.366;2023-05-16T10:49:24;10.73;;;5.43;;
43793;SDS011;29414;44.798;20.366;2023-05-16T10:53:32;14.25;;;5.90;;
43793;SDS011;29414;44.798;20.366;2023-05-16T10:57:32;11.25;;;5.53;;
43793;SDS011;29414;44.798;20.366;2023-05-16T11:01:35;7.57;;;5.22;;
43793;SDS011;29414;44.798;20.366;2023-05-16T11:05:36;11.48;;;5.10;;
43793;SDS011;29414;44.798;20.366;2023-05-16T11:09:39;6.10;;;4.10;;
43793;SDS011;29414;44.798;20.366;2023-05-16T11:13:54;9.80;;;5.03;;
43793;SDS011;29414;44.798;20.366;2023-05-16T11:18:07;7.38;;;4.32;;
43793;SDS011;29414;44.798;20.366;2023-05-16T11:26:23;10.88;;;4.75;;
43793;SDS011;29414;44.798;20.366;2023-05-16T11:30:24;9.90;;;3.97;;
43793;SDS011;29414;44.798;20.366;2023-05-16T11:34:24;10.65;;;4.15;;
43793;SDS011;29414;44.798;20.366;2023-05-16T11:38:25;6.97;;;3.72;;
43793;SDS011;29414;44.798;20.366;2023-05-16T11:42:30;12.40;;;4.38;;
43793;SDS011;29414;44.798;20.366;2023-05-16T11:46:32;10.95;;;3.97;;
43793;SDS011;29414;44.798;20.366;2023-05-16T11:50:36;7.80;;;4.32;;
43793;SDS011;29414;44.798;20.366;2023-05-16T11:54:37;13.73;;;4.63;;
43793;SDS011;29414;44.798;20.366;2023-05-16T11:58:37;12.55;;;4.80;;
43793;SDS011;29414;44.798;20.366;2023-05-16T12:02:41;10.32;;;4.13;;
43793;SDS011;29414;44.798;20.366;2023-05-16T12:06:43;10.02;;;4.65;;
43793;SDS011;29414;44.798;20.366;2023-05-16T12:10:44;6.82;;;4.38;;
43793;SDS011;29414;44.798;20.366;2023-05-16T12:14:44;7.28;;;4.18;;
43793;SDS011;29414;44.798;20.366;2023-05-16T12:18:44;10.30;;;4.13;;
43793;SDS011;29414;44.798;20.366;2023-05-16T12:22:48;9.95;;;4.13;;
43793;SDS011;29414;44.798;20.366;2023-05-16T12:26:49;13.35;;;5.03;;
43793;SDS011;29414;44.798;20.366;2023-05-16T12:30:52;12.25;;;5.10;;
43793;SDS011;29414;44.798;20.366;2023-05-16T12:34:52;8.85;;;5.07;;
43793;SDS011;29414;44.798;20.366;2023-05-16T12:38:53;8.38;;;4.25;;
43793;SDS011;29414;44.798;20.366;2023-05-16T12:42:58;10.90;;;4.43;;
43793;SDS011;29414;44.798;20.366;2023-05-16T12:46:58;14.57;;;4.47;;
43793;SDS011;29414;44.798;20.366;2023-05-16T12:51:09;9.80;;;4.25;;
43793;SDS011;29414;44.798;20.366;2023-05-16T12:55:10;9.82;;;4.10;;
43793;SDS011;29414;44.798;20.366;2023-05-16T12:59:10;16.08;;;4.50;;
43793;SDS011;29414;44.798;20.366;2023-05-16T13:03:11;11.90;;;4.28;;
43793;SDS011;29414;44.798;20.366;2023-05-16T13:07:11;8.93;;;3.67;;
43793;SDS011;29414;44.798;20.366;2023-05-16T13:11:11;12.63;;;4.45;;
43793;SDS011;29414;44.798;20.366;2023-05-16T13:15:12;10.05;;;4.53;;
43793;SDS011;29414;44.798;20.366;2023-05-16T13:19:12;7.93;;;3.45;;
43793;SDS011;29414;44.798;20.366;2023-05-16T13:23:13;9.80;;;3.67;;
43793;SDS011;29414;44.798;20.366;2023-05-16T13:27:16;12.45;;;4.28;;
43793;SDS011;29414;44.798;20.366;2023-05-16T13:31:17;19.38;;;5.15;;
43793;SDS011;29414;44.798;20.366;2023-05-16T13:35:17;13.10;;;4.05;;
43793;SDS011;29414;44.798;20.366;2023-05-16T13:39:17;13.00;;;4.53;;
43793;SDS011;29414;44.798;20.366;2023-05-16T13:43:18;6.57;;;3.72;;
43793;SDS011;29414;44.798;20.366;2023-05-16T13:47:18;6.75;;;3.70;;
43793;SDS011;29414;44.798;20.366;2023-05-16T13:51:18;12.63;;;3.63;;
43793;SDS011;29414;44.798;20.366;2023-05-16T13:55:19;15.32;;;4.57;;
43793;SDS011;29414;44.798;20.366;2023-05-16T13:59:19;8.75;;;3.70;;
43793;SDS011;29414;44.798;20.366;2023-05-16T14:03:20;11.57;;;5.03;;
43793;SDS011;29414;44.798;20.366;2023-05-16T14:07:21;11.88;;;4.20;;
43793;SDS011;29414;44.798;20.366;2023-05-16T14:11:21;13.12;;;4.14;;
43793;SDS011;29414;44.798;20.366;2023-05-16T14:15:25;5.18;;;3.58;;
43793;SDS011;29414;44.798;20.366;2023-05-16T14:19:25;8.40;;;4.43;;
43793;SDS011;29414;44.798;20.366;2023-05-16T14:23:26;9.15;;;4.57;;
43793;SDS011;29414;44.798;20.366;2023-05-16T14:27:27;13.38;;;4.53;;
43793;SDS011;29414;44.798;20.366;2023-05-16T14:31:27;12.25;;;5.35;;
43793;SDS011;29414;44.798;20.366;2023-05-16T14:35:27;11.60;;;5.03;;
43793;SDS011;29414;44.798;20.366;2023-05-16T14:39:28;14.35;;;4.57;;
43793;SDS011;29414;44.798;20.366;2023-05-16T14:43:28;14.63;;;4.85;;
43793;SDS011;29414;44.798;20.366;2023-05-16T14:47:28;9.52;;;4.25;;
43793;SDS011;29414;44.798;20.366;2023-05-16T14:51:30;10.68;;;4.32;;
43793;SDS011;29414;44.798;20.366;2023-05-16T14:55:31;11.63;;;4.97;;
43793;SDS011;29414;44.798;20.366;2023-05-16T14:59:31;12.05;;;4.53;;
43793;SDS011;29414;44.798;20.366;2023-05-16T15:03:31;14.38;;;4.95;;
43793;SDS011;29414;44.798;20.366;2023-05-16T15:07:32;12.45;;;4.50;;
43793;SDS011;29414;44.798;20.366;2023-05-16T15:11:35;6.72;;;4.32;;
43793;SDS011;29414;44.798;20.366;2023-05-16T15:15:35;15.95;;;4.63;;
43793;SDS011;29414;44.798;20.366;2023-05-16T15:19:37;9.93;;;4.22;;
43793;SDS011;29414;44.798;20.366;2023-05-16T15:23:37;7.18;;;4.22;;
43793;SDS011;29414;44.798;20.366;2023-05-16T15:27:38;11.77;;;4.18;;
43793;SDS011;29414;44.798;20.366;2023-05-16T15:31:38;7.57;;;4.28;;
43793;SDS011;29414;44.798;20.366;2023-05-16T15:35:38;10.30;;;3.90;;
43793;SDS011;29414;44.798;20.366;2023-05-16T15:39:39;8.20;;;4.40;;
43793;SDS011;29414;44.798;20.366;2023-05-16T15:43:39;13.02;;;4.13;;
43793;SDS011;29414;44.798;20.366;2023-05-16T15:47:40;9.50;;;5.32;;
43793;SDS011;29414;44.798;20.366;2023-05-16T15:51:40;12.73;;;4.93;;
43793;SDS011;29414;44.798;20.366;2023-05-16T15:55:40;10.55;;;4.70;;
43793;SDS011;29414;44.798;20.366;2023-05-16T15:59:41;8.02;;;4.18;;
43793;SDS011;29414;44.798;20.366;2023-05-16T16:03:41;7.40;;;4.10;;
43793;SDS011;29414;44.798;20.366;2023-05-16T16:07:41;11.55;;;4.80;;
43793;SDS011;29414;44.798;20.366;2023-05-16T16:11:42;9.45;;;4.22;;
43793;SDS011;29414;44.798;20.366;2023-05-16T16:15:42;9.35;;;4.40;;
43793;SDS011;29414;44.798;20.366;2023-05-16T16:19:42;6.97;;;4.22;;
43793;SDS011;29414;44.798;20.366;2023-05-16T16:23:43;16.67;;;5.18;;
43793;SDS011;29414;44.798;20.366;2023-05-16T16:27:43;9.63;;;4.82;;
43793;SDS011;29414;44.798;20.366;2023-05-16T16:31:43;8.98;;;4.65;;
43793;SDS011;29414;44.798;20.366;2023-05-16T16:35:44;8.80;;;4.65;;
43793;SDS011;29414;44.798;20.366;2023-05-16T16:39:44;5.45;;;4.18;;
43793;SDS011;29414;44.798;20.366;2023-05-16T16:43:48;10.43;;;4.57;;
43793;SDS011;29414;44.798;20.366;2023-05-16T16:47:48;10.13;;;4.20;;
43793;SDS011;29414;44.798;20.366;2023-05-16T16:51:48;5.13;;;3.83;;
43793;SDS011;29414;44.798;20.366;2023-05-16T16:55:49;10.25;;;4.60;;
43793;SDS011;29414;44.798;20.366;2023-05-16T16:59:49;9.68;;;4.68;;
43793;SDS011;29414;44.798;20.366;2023-05-16T17:03:49;7.38;;;4.63;;
43793;SDS011;29414;44.798;20.366;2023-05-16T17:07:50;6.85;;;4.68;;
43793;SDS011;29414;44.798;20.366;2023-05-16T17:11:51;7.55;;;4.38;;
43793;SDS011;29414;44.798;20.366;2023-05-16T17:15:51;5.97;;;3.88;;
43793;SDS011;29414;44.798;20.366;2023-05-16T17:19:52;10.95;;;5.07;;
43793;SDS011;29414;44.798;20.366;2023-05-16T17:23:52;8.20;;;4.47;;
43793;SDS011;29414;44.798;20.366;2023-05-16T17:27:53;8.50;;;4.85;;
43793;SDS011;29414;44.798;20.366;2023-05-16T17:31:53;9.18;;;4.25;;
43793;SDS011;29414;44.798;20.366;2023-05-16T17:35:53;8.43;;;5.03;;
43793;SDS011;29414;44.798;20.366;2023-05-16T17:39:54;9.40;;;4.82;;
43793;SDS011;29414;44.798;20.366;2023-05-16T17:43:54;9.63;;;4.78;;
43793;SDS011;29414;44.798;20.366;2023-05-16T17:47:54;5.68;;;4.50;;
43793;SDS011;29414;44.798;20.366;2023-05-16T17:51:55;7.53;;;5.32;;
43793;SDS011;29414;44.798;20.366;2023-05-16T17:55:57;6.82;;;4.10;;
43793;SDS011;29414;44.798;20.366;2023-05-16T17:59:57;8.25;;;5.15;;
43793;SDS011;29414;44.798;20.366;2023-05-16T18:03:57;12.32;;;5.34;;
43793;SDS011;29414;44.798;20.366;2023-05-16T18:07:58;10.57;;;5.43;;
43793;SDS011;29414;44.798;20.366;2023-05-16T18:11:58;8.02;;;4.88;;
43793;SDS011;29414;44.798;20.366;2023-05-16T18:16:00;10.23;;;5.78;;
43793;SDS011;29414;44.798;20.366;2023-05-16T18:20:04;13.43;;;6.15;;
43793;SDS011;29414;44.798;20.366;2023-05-16T18:24:10;9.13;;;5.03;;
43793;SDS011;29414;44.798;20.366;2023-05-16T18:28:12;10.68;;;6.00;;
43793;SDS011;29414;44.798;20.366;2023-05-16T18:32:12;8.26;;;5.48;;
43793;SDS011;29414;44.798;20.366;2023-05-16T18:36:12;9.90;;;5.88;;
43793;SDS011;29414;44.798;20.366;2023-05-16T18:40:12;11.68;;;6.65;;
43793;SDS011;29414;44.798;20.366;2023-05-16T18:44:16;6.10;;;5.07;;
43793;SDS011;29414;44.798;20.366;2023-05-16T18:48:16;11.35;;;6.63;;
43793;SDS011;29414;44.798;20.366;2023-05-16T18:52:16;9.60;;;5.88;;
43793;SDS011;29414;44.798;20.366;2023-05-16T18:56:17;8.40;;;6.22;;
43793;SDS011;29414;44.798;20.366;2023-05-16T19:00:17;15.63;;;6.60;;
43793;SDS011;29414;44.798;20.366;2023-05-16T19:04:18;10.60;;;6.32;;
43793;SDS011;29414;44.798;20.366;2023-05-16T19:08:19;10.95;;;6.03;;
43793;SDS011;29414;44.798;20.366;2023-05-16T19:12:19;7.80;;;5.15;;
43793;SDS011;29414;44.798;20.366;2023-05-16T19:16:20;14.18;;;6.72;;
43793;SDS011;29414;44.798;20.366;2023-05-16T19:20:20;8.70;;;6.18;;
43793;SDS011;29414;44.798;20.366;2023-05-16T19:24:20;7.40;;;5.44;;
43793;SDS011;29414;44.798;20.366;2023-05-16T19:28:20;13.20;;;6.78;;
43793;SDS011;29414;44.798;20.366;2023-05-16T19:32:21;11.63;;;6.63;;
43793;SDS011;29414;44.798;20.366;2023-05-16T19:36:21;9.43;;;5.88;;
43793;SDS011;29414;44.798;20.366;2023-05-16T19:40:22;10.86;;;6.50;;
43793;SDS011;29414;44.798;20.366;2023-05-16T19:44:22;11.65;;;6.97;;
43793;SDS011;29414;44.798;20.366;2023-05-16T19:48:22;10.25;;;6.45;;
43793;SDS011;29414;44.798;20.366;2023-05-16T19:52:22;7.80;;;6.07;;
43793;SDS011;29414;44.798;20.366;2023-05-16T19:56:24;7.32;;;6.38;;
43793;SDS011;29414;44.798;20.366;2023-05-16T20:00:26;8.02;;;6.25;;
43793;SDS011;29414;44.798;20.366;2023-05-16T20:04:26;9.18;;;5.63;;
43793;SDS011;29414;44.798;20.366;2023-05-16T20:08:29;12.93;;;6.40;;
43793;SDS011;29414;44.798;20.366;2023-05-16T20:12:29;10.12;;;6.28;;
43793;SDS011;29414;44.798;20.366;2023-05-16T20:16:29;14.00;;;7.30;;
43793;SDS011;29414;44.798;20.366;2023-05-16T20:20:30;10.23;;;5.65;;
43793;SDS011;29414;44.798;20.366;2023-05-16T20:24:30;10.07;;;7.25;;
43793;SDS011;29414;44.798;20.366;2023-05-16T20:28:30;10.18;;;6.38;;
43793;SDS011;29414;44.798;20.366;2023-05-16T20:32:31;9.85;;;6.05;;
43793;SDS011;29414;44.798;20.366;2023-05-16T20:36:31;6.97;;;6.25;;
43793;SDS011;29414;44.798;20.366;2023-05-16T20:40:32;6.10;;;5.50;;
43793;SDS011;29414;44.798;20.366;2023-05-16T20:44:32;7.72;;;6.05;;
43793;SDS011;29414;44.798;20.366;2023-05-16T20:48:32;10.30;;;5.72;;
43793;SDS011;29414;44.798;20.366;2023-05-16T20:52:33;11.55;;;5.75;;
43793;SDS011;29414;44.798;20.366;2023-05-16T20:56:33;9.45;;;5.38;;
43793;SDS011;29414;44.798;20.366;2023-05-16T21:00:33;7.84;;;4.48;;
43793;SDS011;29414;44.798;20.366;2023-05-16T21:04:35;7.82;;;4.82;;
43793;SDS011;29414;44.798;20.366;2023-05-16T21:08:35;7.50;;;5.00;;
43793;SDS011;29414;44.798;20.366;2023-05-16T21:12:36;10.93;;;5.28;;
43793;SDS011;29414;44.798;20.366;2023-05-16T21:16:36;6.45;;;4.20;;
43793;SDS011;29414;44.798;20.366;2023-05-16T21:20:39;6.85;;;4.32;;
43793;SDS011;29414;44.798;20.366;2023-05-16T21:24:39;10.88;;;4.95;;
43793;SDS011;29414;44.798;20.366;2023-05-16T21:28:43;6.32;;;4.70;;
43793;SDS011;29414;44.798;20.366;2023-05-16T21:32:43;9.20;;;4.78;;
43793;SDS011;29414;44.798;20.366;2023-05-16T21:36:44;10.60;;;4.85;;
43793;SDS011;29414;44.798;20.366;2023-05-16T21:40:44;4.95;;;4.20;;
43793;SDS011;29414;44.798;20.366;2023-05-16T21:44:45;5.35;;;4.47;;
43793;SDS011;29414;44.798;20.366;2023-05-16T21:48:45;8.80;;;5.63;;
43793;SDS011;29414;44.798;20.366;2023-05-16T21:52:45;8.52;;;4.85;;
43793;SDS011;29414;44.798;20.366;2023-05-16T21:56:46;5.85;;;4.57;;
43793;SDS011;29414;44.798;20.366;2023-05-16T22:00:46;11.07;;;5.43;;
43793;SDS011;29414;44.798;20.366;2023-05-16T22:04:50;10.55;;;5.93;;
43793;SDS011;29414;44.798;20.366;2023-05-16T22:08:51;7.97;;;4.53;;
43793;SDS011;29414;44.798;20.366;2023-05-16T22:12:52;6.95;;;4.07;;
43793;SDS011;29414;44.798;20.366;2023-05-16T22:16:52;7.45;;;4.60;;
43793;SDS011;29414;44.798;20.366;2023-05-16T22:20:52;9.44;;;4.54;;
43793;SDS011;29414;44.798;20.366;2023-05-16T22:24:53;10.40;;;4.65;;
43793;SDS011;29414;44.798;20.366;2023-05-16T22:28:53;6.55;;;4.18;;
43793;SDS011;29414;44.798;20.366;2023-05-16T22:32:53;6.90;;;4.78;;
43793;SDS011;29414;44.798;20.366;2023-05-16T22:36:55;8.98;;;5.00;;
43793;SDS011;29414;44.798;20.366;2023-05-16T22:40:56;9.26;;;4.72;;
43793;SDS011;29414;44.798;20.366;2023-05-16T22:44:56;7.55;;;4.72;;
43793;SDS011;29414;44.798;20.366;2023-05-16T22:48:56;6.90;;;4.65;;
43793;SDS011;29414;44.798;20.366;2023-05-16T22:52:57;7.97;;;5.22;;
43793;SDS011;29414;44.798;20.366;2023-05-16T22:56:57;10.80;;;4.75;;
43793;SDS011;29414;44.798;20.366;2023-05-16T23:00:57;10.93;;;5.20;;
43793;SDS011;29414;44.798;20.366;2023-05-16T23:04:57;9.25;;;5.45;;
43793;SDS011;29414;44.798;20.366;2023-05-16T23:08:58;6.85;;;5.95;;
43793;SDS011;29414;44.798;20.366;2023-05-16T23:12:59;6.78;;;5.97;;
43793;SDS011;29414;44.798;20.366;2023-05-16T23:17:00;7.40;;;5.55;;
43793;SDS011;29414;44.798;20.366;2023-05-16T23:21:00;9.40;;;5.78;;
43793;SDS011;29414;44.798;20.366;2023-05-16T23:25:01;7.45;;;6.22;;
43793;SDS011;29414;44.798;20.366;2023-05-16T23:29:01;10.15;;;5.70;;
43793;SDS011;29414;44.798;20.366;2023-05-16T23:33:01;9.25;;;5.50;;
43793;SDS011;29414;44.798;20.366;2023-05-16T23:37:01;13.38;;;6.15;;
43793;SDS011;29414;44.798;20.366;2023-05-16T23:41:02;6.88;;;5.47;;
43793;SDS011;29414;44.798;20.366;2023-05-16T23:45:02;10.48;;;6.45;;
43793;SDS011;29414;44.798;20.366;2023-05-16T23:49:02;7.68;;;5.80;;
43793;SDS011;29414;44.798;20.366;2023-05-16T23:53:03;11.38;;;5.30;;
43793;SDS011;29414;44.798;20.366;2023-05-16T23:57:03;10.90;;;5.65;;
